sensor_id;sensor_type;location;lat;lon;timestamp;P1;durP1;ratioP1;P2;durP2;ratioP2
22837;SDS011;11585;51.450;-0.240;2023-11-21T08:40:03;11.40;;;10.90;;
22837;SDS011;11585;51.450;-0.240;2023-11-21T08:42:34;11.88;;;11.38;;
22837;SDS011;11585;51.450;-0.240;2023-11-21T08:45:00;11.90;;;11.40;;
22837;SDS011;11585;51.450;-0.240;2023-11-21T08:47:26;11.70;;;11.20;;
22837;SDS011;11585;51.450;-0.240;2023-11-21T08:49:53;11.70;;;11.20;;
22837;SDS011;11585;51.450;-0.240;2023-11-21T08:52:19;11.68;;;11.18;;
22837;SDS011;11585;51.450;-0.240;2023-11-21T08:54:49;11.98;;;11.48;;
22837;SDS011;11585;51.450;-0.240;2023-11-21T08:57:21;11.80;;;11.30;;
22837;SDS011;11585;51.450;-0.240;2023-11-21T08:59:47;12.00;;;11.50;;
22837;SDS011;11585;51.450;-0.240;2023-11-21T09:02:13;12.00;;;11.50;;
22837;SDS011;11585;51.450;-0.240;2023-11-21T09:04:38;11.45;;;10.95;;
22837;SDS011;11585;51.450;-0.240;2023-11-21T09:07:04;11.80;;;11.30;;
22837;SDS011;11585;51.450;-0.240;2023-11-21T09:09:30;11.15;;;10.65;;
22837;SDS011;11585;51.450;-0.240;2023-11-21T09:11:56;10.85;;;10.35;;
22837;SDS011;11585;51.450;-0.240;2023-11-21T09:14:22;11.88;;;11.38;;
22837;SDS011;11585;51.450;-0.240;2023-11-21T09:16:47;11.40;;;10.90;;
22837;SDS011;11585;51.450;-0.240;2023-11-21T09:19:15;12.60;;;12.00;;
22837;SDS011;11585;51.450;-0.240;2023-11-21T09:21:40;12.50;;;11.90;;
22837;SDS011;11585;51.450;-0.240;2023-11-21T09:24:06;12.77;;;12.18;;
22837;SDS011;11585;51.450;-0.240;2023-11-21T09:26:34;12.68;;;12.07;;
22837;SDS011;11585;51.450;-0.240;2023-11-21T09:28:59;12.48;;;11.90;;
22837;SDS011;11585;51.450;-0.240;2023-11-21T09:31:27;13.50;;;12.90;;
22837;SDS011;11585;51.450;-0.240;2023-11-21T09:33:52;11.98;;;11.48;;
22837;SDS011;11585;51.450;-0.240;2023-11-21T09:36:18;12.05;;;11.55;;
22837;SDS011;11585;51.450;-0.240;2023-11-21T09:38:44;11.75;;;11.25;;
22837;SDS011;11585;51.450;-0.240;2023-11-21T09:41:21;12.05;;;11.55;;
22837;SDS011;11585;51.450;-0.240;2023-11-21T09:43:50;12.15;;;11.65;;
22837;SDS011;11585;51.450;-0.240;2023-11-21T09:46:21;12.02;;;11.52;;
22837;SDS011;11585;51.450;-0.240;2023-11-21T09:48:51;11.98;;;11.48;;
22837;SDS011;11585;51.450;-0.240;2023-11-21T09:51:18;11.82;;;11.32;;
22837;SDS011;11585;51.450;-0.240;2023-11-21T09:53:47;12.75;;;12.15;;
22837;SDS011;11585;51.450;-0.240;2023-11-21T09:56:17;12.75;;;12.15;;
22837;SDS011;11585;51.450;-0.240;2023-11-21T09:58:50;11.63;;;11.13;;
22837;SDS011;11585;51.450;-0.240;2023-11-21T10:01:21;12.13;;;11.63;;
22837;SDS011;11585;51.450;-0.240;2023-11-21T10:03:48;11.90;;;11.40;;
22837;SDS011;11585;51.450;-0.240;2023-11-21T10:06:14;11.30;;;10.80;;
22837;SDS011;11585;51.450;-0.240;2023-11-21T10:08:42;10.82;;;10.32;;
22837;SDS011;11585;51.450;-0.240;2023-11-21T10:11:08;11.23;;;10.73;;
22837;SDS011;11585;51.450;-0.240;2023-11-21T10:13:37;11.48;;;10.98;;
22837;SDS011;11585;51.450;-0.240;2023-11-21T10:16:04;11.45;;;10.95;;
22837;SDS011;11585;51.450;-0.240;2023-11-21T10:18:32;10.63;;;10.13;;
22837;SDS011;11585;51.450;-0.240;2023-11-21T10:20:59;11.38;;;10.88;;
22837;SDS011;11585;51.450;-0.240;2023-11-21T10:23:25;11.05;;;10.55;;
22837;SDS011;11585;51.450;-0.240;2023-11-21T10:25:53;11.23;;;10.73;;
22837;SDS011;11585;51.450;-0.240;2023-11-21T10:28:22;10.68;;;10.18;;
22837;SDS011;11585;51.450;-0.240;2023-11-21T10:30:47;11.20;;;10.70;;
22837;SDS011;11585;51.450;-0.240;2023-11-21T10:33:13;10.98;;;10.48;;
22837;SDS011;11585;51.450;-0.240;2023-11-21T10:38:12;10.98;;;10.48;;
22837;SDS011;11585;51.450;-0.240;2023-11-21T10:40:39;10.98;;;10.48;;
22837;SDS011;11585;51.450;-0.240;2023-11-21T10:43:07;11.02;;;10.52;;
22837;SDS011;11585;51.450;-0.240;2023-11-21T10:45:34;11.57;;;11.07;;
22837;SDS011;11585;51.450;-0.240;2023-11-21T10:48:05;10.20;;;9.80;;
22837;SDS011;11585;51.450;-0.240;2023-11-21T10:50:33;10.60;;;10.10;;
22837;SDS011;11585;51.450;-0.240;2023-11-21T10:53:01;10.02;;;9.63;;
22837;SDS011;11585;51.450;-0.240;2023-11-21T10:55:28;9.82;;;9.43;;
22837;SDS011;11585;51.450;-0.240;2023-11-21T10:57:56;10.27;;;9.88;;
22837;SDS011;11585;51.450;-0.240;2023-11-21T11:00:28;10.10;;;9.70;;
22837;SDS011;11585;51.450;-0.240;2023-11-21T11:02:54;9.93;;;9.52;;
22837;SDS011;11585;51.450;-0.240;2023-11-21T11:05:21;10.60;;;10.10;;
22837;SDS011;11585;51.450;-0.240;2023-11-21T11:07:51;10.90;;;10.40;;
22837;SDS011;11585;51.450;-0.240;2023-11-21T11:10:24;10.90;;;10.40;;
22837;SDS011;11585;51.450;-0.240;2023-11-21T11:12:52;11.10;;;10.60;;
22837;SDS011;11585;51.450;-0.240;2023-11-21T11:15:19;11.20;;;10.70;;
22837;SDS011;11585;51.450;-0.240;2023-11-21T11:17:45;10.95;;;10.45;;
22837;SDS011;11585;51.450;-0.240;2023-11-21T11:20:12;10.70;;;10.20;;
22837;SDS011;11585;51.450;-0.240;2023-11-21T11:27:44;10.60;;;10.10;;
22837;SDS011;11585;51.450;-0.240;2023-11-21T11:31:08;10.65;;;10.15;;
22837;SDS011;11585;51.450;-0.240;2023-11-21T11:36:10;11.38;;;10.88;;
22837;SDS011;11585;51.450;-0.240;2023-11-21T11:38:51;11.43;;;10.93;;
22837;SDS011;11585;51.450;-0.240;2023-11-21T11:41:27;11.60;;;11.10;;
22837;SDS011;11585;51.450;-0.240;2023-11-21T11:43:57;11.45;;;10.95;;
22837;SDS011;11585;51.450;-0.240;2023-11-21T11:46:45;11.65;;;11.15;;
22837;SDS011;11585;51.450;-0.240;2023-11-21T11:49:27;11.05;;;10.55;;
22837;SDS011;11585;51.450;-0.240;2023-11-21T11:54:59;9.93;;;9.52;;
22837;SDS011;11585;51.450;-0.240;2023-11-21T11:57:25;10.27;;;9.88;;
22837;SDS011;11585;51.450;-0.240;2023-11-21T12:00:14;10.02;;;9.63;;
22837;SDS011;11585;51.450;-0.240;2023-11-21T12:02:55;10.65;;;10.15;;
22837;SDS011;11585;51.450;-0.240;2023-11-21T12:05:23;10.60;;;10.10;;
22837;SDS011;11585;51.450;-0.240;2023-11-21T12:07:56;10.73;;;10.23;;
22837;SDS011;11585;51.450;-0.240;2023-11-21T12:10:31;11.50;;;11.00;;
22837;SDS011;11585;51.450;-0.240;2023-11-21T12:13:02;10.45;;;9.95;;
22837;SDS011;11585;51.450;-0.240;2023-11-21T12:15:40;10.70;;;10.20;;
22837;SDS011;11585;51.450;-0.240;2023-11-21T12:18:11;10.70;;;10.20;;
22837;SDS011;11585;51.450;-0.240;2023-11-21T12:20:44;10.63;;;10.13;;
22837;SDS011;11585;51.450;-0.240;2023-11-21T12:23:13;10.60;;;10.10;;
22837;SDS011;11585;51.450;-0.240;2023-11-21T12:25:40;10.70;;;10.20;;
22837;SDS011;11585;51.450;-0.240;2023-11-21T12:28:07;10.82;;;10.32;;
22837;SDS011;11585;51.450;-0.240;2023-11-21T12:30:34;9.98;;;9.57;;
22837;SDS011;11585;51.450;-0.240;2023-11-21T12:33:01;9.90;;;9.50;;
22837;SDS011;11585;51.450;-0.240;2023-11-21T12:35:29;9.63;;;9.23;;
22837;SDS011;11585;51.450;-0.240;2023-11-21T12:37:58;10.57;;;10.07;;
22837;SDS011;11585;51.450;-0.240;2023-11-21T12:40:25;9.40;;;9.00;;
22837;SDS011;11585;51.450;-0.240;2023-11-21T12:42:54;9.85;;;9.45;;
22837;SDS011;11585;51.450;-0.240;2023-11-21T12:45:22;9.88;;;9.48;;
22837;SDS011;11585;51.450;-0.240;2023-11-21T12:47:56;9.85;;;9.45;;
22837;SDS011;11585;51.450;-0.240;2023-11-21T12:50:25;9.40;;;9.00;;
22837;SDS011;11585;51.450;-0.240;2023-11-21T12:53:00;9.40;;;9.00;;
22837;SDS011;11585;51.450;-0.240;2023-11-21T12:55:29;9.70;;;9.30;;
22837;SDS011;11585;51.450;-0.240;2023-11-21T12:57:56;9.15;;;8.75;;
22837;SDS011;11585;51.450;-0.240;2023-11-21T13:00:33;9.02;;;8.63;;
22837;SDS011;11585;51.450;-0.240;2023-11-21T13:03:02;9.40;;;9.00;;
22837;SDS011;11585;51.450;-0.240;2023-11-21T13:05:30;9.13;;;8.73;;
22837;SDS011;11585;51.450;-0.240;2023-11-21T13:07:59;8.60;;;8.20;;
22837;SDS011;11585;51.450;-0.240;2023-11-21T13:10:35;8.75;;;8.35;;
22837;SDS011;11585;51.450;-0.240;2023-11-21T13:13:03;8.35;;;8.00;;
22837;SDS011;11585;51.450;-0.240;2023-11-21T13:15:34;7.90;;;7.60;;
22837;SDS011;11585;51.450;-0.240;2023-11-21T13:18:04;8.38;;;8.00;;
22837;SDS011;11585;51.450;-0.240;2023-11-21T13:20:33;8.25;;;7.95;;
22837;SDS011;11585;51.450;-0.240;2023-11-21T13:23:06;8.02;;;7.72;;
22837;SDS011;11585;51.450;-0.240;2023-11-21T13:25:42;8.25;;;7.95;;
22837;SDS011;11585;51.450;-0.240;2023-11-21T13:28:16;8.65;;;8.25;;
22837;SDS011;11585;51.450;-0.240;2023-11-21T13:30:49;8.60;;;8.20;;
22837;SDS011;11585;51.450;-0.240;2023-11-21T13:33:18;8.00;;;7.70;;
22837;SDS011;11585;51.450;-0.240;2023-11-21T13:35:52;8.02;;;7.72;;
22837;SDS011;11585;51.450;-0.240;2023-11-21T13:38:21;8.32;;;8.00;;
22837;SDS011;11585;51.450;-0.240;2023-11-21T13:40:51;8.30;;;8.00;;
22837;SDS011;11585;51.450;-0.240;2023-11-21T13:43:19;7.90;;;7.60;;
22837;SDS011;11585;51.450;-0.240;2023-11-21T13:45:47;7.57;;;7.28;;
22837;SDS011;11585;51.450;-0.240;2023-11-21T13:48:24;7.47;;;7.18;;
22837;SDS011;11585;51.450;-0.240;2023-11-21T13:50:56;8.10;;;7.80;;
22837;SDS011;11585;51.450;-0.240;2023-11-21T13:56:18;7.70;;;7.40;;
22837;SDS011;11585;51.450;-0.240;2023-11-21T13:58:53;7.90;;;7.60;;
22837;SDS011;11585;51.450;-0.240;2023-11-21T14:01:20;7.90;;;7.60;;
22837;SDS011;11585;51.450;-0.240;2023-11-21T14:03:59;7.88;;;7.57;;
22837;SDS011;11585;51.450;-0.240;2023-11-21T14:06:45;7.93;;;7.63;;
22837;SDS011;11585;51.450;-0.240;2023-11-21T14:12:08;8.10;;;7.80;;
22837;SDS011;11585;51.450;-0.240;2023-11-21T14:14:37;8.57;;;8.18;;
22837;SDS011;11585;51.450;-0.240;2023-11-21T14:17:04;8.30;;;7.97;;
22837;SDS011;11585;51.450;-0.240;2023-11-21T14:19:32;8.40;;;8.05;;
22837;SDS011;11585;51.450;-0.240;2023-11-21T14:21:59;8.60;;;8.20;;
22837;SDS011;11585;51.450;-0.240;2023-11-21T14:24:25;8.38;;;8.02;;
22837;SDS011;11585;51.450;-0.240;2023-11-21T14:26:51;8.88;;;8.48;;
22837;SDS011;11585;51.450;-0.240;2023-11-21T14:29:18;8.30;;;8.00;;
22837;SDS011;11585;51.450;-0.240;2023-11-21T14:31:48;8.50;;;8.10;;
22837;SDS011;11585;51.450;-0.240;2023-11-21T14:34:16;8.70;;;8.30;;
22837;SDS011;11585;51.450;-0.240;2023-11-21T14:36:42;9.10;;;8.70;;
22837;SDS011;11585;51.450;-0.240;2023-11-21T14:39:09;8.90;;;8.50;;
22837;SDS011;11585;51.450;-0.240;2023-11-21T14:41:47;9.07;;;8.67;;
22837;SDS011;11585;51.450;-0.240;2023-11-21T14:44:13;9.20;;;8.80;;
22837;SDS011;11585;51.450;-0.240;2023-11-21T14:46:40;8.68;;;8.27;;
22837;SDS011;11585;51.450;-0.240;2023-11-21T14:49:10;9.30;;;8.90;;
22837;SDS011;11585;51.450;-0.240;2023-11-21T14:51:52;9.10;;;8.70;;
22837;SDS011;11585;51.450;-0.240;2023-11-21T14:54:25;9.55;;;9.15;;
22837;SDS011;11585;51.450;-0.240;2023-11-21T14:57:14;10.07;;;9.68;;
22837;SDS011;11585;51.450;-0.240;2023-11-21T15:02:13;9.70;;;9.30;;
22837;SDS011;11585;51.450;-0.240;2023-11-21T15:04:44;9.77;;;9.38;;
22837;SDS011;11585;51.450;-0.240;2023-11-21T15:07:10;9.40;;;9.00;;
22837;SDS011;11585;51.450;-0.240;2023-11-21T15:09:39;9.32;;;8.93;;
22837;SDS011;11585;51.450;-0.240;2023-11-21T15:12:08;9.68;;;9.27;;
22837;SDS011;11585;51.450;-0.240;2023-11-21T15:14:41;9.60;;;9.20;;
22837;SDS011;11585;51.450;-0.240;2023-11-21T15:17:08;9.98;;;9.57;;
22837;SDS011;11585;51.450;-0.240;2023-11-21T15:19:35;9.80;;;9.40;;
22837;SDS011;11585;51.450;-0.240;2023-11-21T15:22:01;9.55;;;9.15;;
22837;SDS011;11585;51.450;-0.240;2023-11-21T15:24:27;9.75;;;9.35;;
22837;SDS011;11585;51.450;-0.240;2023-11-21T15:26:53;10.88;;;10.38;;
22837;SDS011;11585;51.450;-0.240;2023-11-21T15:32:07;10.85;;;10.35;;
22837;SDS011;11585;51.450;-0.240;2023-11-21T15:34:35;10.10;;;9.70;;
22837;SDS011;11585;51.450;-0.240;2023-11-21T15:37:01;10.50;;;10.00;;
22837;SDS011;11585;51.450;-0.240;2023-11-21T15:39:28;10.90;;;10.40;;
22837;SDS011;11585;51.450;-0.240;2023-11-21T15:41:58;10.10;;;9.70;;
22837;SDS011;11585;51.450;-0.240;2023-11-21T15:44:27;9.82;;;9.43;;
22837;SDS011;11585;51.450;-0.240;2023-11-21T15:46:55;10.10;;;9.70;;
22837;SDS011;11585;51.450;-0.240;2023-11-21T15:52:11;10.40;;;9.95;;
22837;SDS011;11585;51.450;-0.240;2023-11-21T15:54:37;9.80;;;9.40;;
22837;SDS011;11585;51.450;-0.240;2023-11-21T15:57:03;10.60;;;10.10;;
22837;SDS011;11585;51.450;-0.240;2023-11-21T15:59:32;10.20;;;9.80;;
22837;SDS011;11585;51.450;-0.240;2023-11-21T16:02:01;9.95;;;9.55;;
22837;SDS011;11585;51.450;-0.240;2023-11-21T16:04:29;10.23;;;9.82;;
22837;SDS011;11585;51.450;-0.240;2023-11-21T16:06:55;10.07;;;9.68;;
22837;SDS011;11585;51.450;-0.240;2023-11-21T16:09:25;10.27;;;9.88;;
22837;SDS011;11585;51.450;-0.240;2023-11-21T16:12:00;10.48;;;10.00;;
22837;SDS011;11585;51.450;-0.240;2023-11-21T16:14:31;10.52;;;10.02;;
22837;SDS011;11585;51.450;-0.240;2023-11-21T16:17:01;10.35;;;9.90;;
22837;SDS011;11585;51.450;-0.240;2023-11-21T16:19:27;10.60;;;10.10;;
22837;SDS011;11585;51.450;-0.240;2023-11-21T16:21:53;10.20;;;9.80;;
22837;SDS011;11585;51.450;-0.240;2023-11-21T16:24:19;11.50;;;11.00;;
22837;SDS011;11585;51.450;-0.240;2023-11-21T16:26:46;10.20;;;9.80;;
22837;SDS011;11585;51.450;-0.240;2023-11-21T16:29:13;10.10;;;9.70;;
22837;SDS011;11585;51.450;-0.240;2023-11-21T16:31:40;10.20;;;9.80;;
22837;SDS011;11585;51.450;-0.240;2023-11-21T16:34:13;11.02;;;10.52;;
22837;SDS011;11585;51.450;-0.240;2023-11-21T16:36:40;10.75;;;10.25;;
22837;SDS011;11585;51.450;-0.240;2023-11-21T16:41:56;10.10;;;9.70;;
22837;SDS011;11585;51.450;-0.240;2023-11-21T16:44:21;10.57;;;10.07;;
22837;SDS011;11585;51.450;-0.240;2023-11-21T16:46:51;10.70;;;10.20;;
22837;SDS011;11585;51.450;-0.240;2023-11-21T16:49:24;10.70;;;10.20;;
22837;SDS011;11585;51.450;-0.240;2023-11-21T16:51:51;10.23;;;9.82;;
22837;SDS011;11585;51.450;-0.240;2023-11-21T16:54:18;9.88;;;9.48;;
22837;SDS011;11585;51.450;-0.240;2023-11-21T16:56:46;10.00;;;9.60;;
22837;SDS011;11585;51.450;-0.240;2023-11-21T16:59:14;10.50;;;10.00;;
22837;SDS011;11585;51.450;-0.240;2023-11-21T17:01:40;10.68;;;10.18;;
22837;SDS011;11585;51.450;-0.240;2023-11-21T17:04:06;11.32;;;10.82;;
22837;SDS011;11585;51.450;-0.240;2023-11-21T17:06:39;10.52;;;10.02;;
22837;SDS011;11585;51.450;-0.240;2023-11-21T17:09:07;10.70;;;10.20;;
22837;SDS011;11585;51.450;-0.240;2023-11-21T17:11:38;11.20;;;10.70;;
22837;SDS011;11585;51.450;-0.240;2023-11-21T17:14:07;11.82;;;11.32;;
22837;SDS011;11585;51.450;-0.240;2023-11-21T17:18:59;11.60;;;11.10;;
22837;SDS011;11585;51.450;-0.240;2023-11-21T17:21:24;11.90;;;11.40;;
22837;SDS011;11585;51.450;-0.240;2023-11-21T17:23:50;11.40;;;10.90;;
22837;SDS011;11585;51.450;-0.240;2023-11-21T17:26:16;11.35;;;10.85;;
22837;SDS011;11585;51.450;-0.240;2023-11-21T17:28:44;11.75;;;11.25;;
22837;SDS011;11585;51.450;-0.240;2023-11-21T17:31:10;11.38;;;10.88;;
22837;SDS011;11585;51.450;-0.240;2023-11-21T17:33:36;11.52;;;11.02;;
22837;SDS011;11585;51.450;-0.240;2023-11-21T17:36:05;11.65;;;11.15;;
22837;SDS011;11585;51.450;-0.240;2023-11-21T17:41:53;11.85;;;11.35;;
22837;SDS011;11585;51.450;-0.240;2023-11-21T17:44:19;11.93;;;11.43;;
22837;SDS011;11585;51.450;-0.240;2023-11-21T17:46:45;11.70;;;11.20;;
22837;SDS011;11585;51.450;-0.240;2023-11-21T17:49:11;11.55;;;11.05;;
22837;SDS011;11585;51.450;-0.240;2023-11-21T22:14:56;12.80;;;12.20;;
22837;SDS011;11585;51.450;-0.240;2023-11-21T22:17:21;13.00;;;12.40;;
22837;SDS011;11585;51.450;-0.240;2023-11-21T22:19:47;13.48;;;12.88;;
22837;SDS011;11585;51.450;-0.240;2023-11-21T22:22:13;12.95;;;12.35;;
22837;SDS011;11585;51.450;-0.240;2023-11-21T22:24:38;12.82;;;12.23;;
22837;SDS011;11585;51.450;-0.240;2023-11-21T22:27:04;13.40;;;12.80;;
22837;SDS011;11585;51.450;-0.240;2023-11-21T22:29:30;13.60;;;13.00;;
22837;SDS011;11585;51.450;-0.240;2023-11-21T22:31:56;13.32;;;12.73;;
22837;SDS011;11585;51.450;-0.240;2023-11-21T22:34:24;13.68;;;13.07;;
22837;SDS011;11585;51.450;-0.240;2023-11-21T22:36:49;13.35;;;12.75;;
22837;SDS011;11585;51.450;-0.240;2023-11-21T22:39:15;13.32;;;12.73;;
22837;SDS011;11585;51.450;-0.240;2023-11-21T22:41:41;12.90;;;12.30;;
22837;SDS011;11585;51.450;-0.240;2023-11-21T22:44:10;13.45;;;12.85;;
22837;SDS011;11585;51.450;-0.240;2023-11-21T22:46:42;13.90;;;13.30;;
22837;SDS011;11585;51.450;-0.240;2023-11-21T22:49:09;14.05;;;13.45;;
22837;SDS011;11585;51.450;-0.240;2023-11-21T22:51:36;14.00;;;13.40;;
22837;SDS011;11585;51.450;-0.240;2023-11-21T22:56:49;13.88;;;13.27;;
22837;SDS011;11585;51.450;-0.240;2023-11-21T22:59:16;13.43;;;12.82;;
22837;SDS011;11585;51.450;-0.240;2023-11-21T23:01:43;13.80;;;13.20;;
22837;SDS011;11585;51.450;-0.240;2023-11-21T23:04:10;14.07;;;13.48;;
22837;SDS011;11585;51.450;-0.240;2023-11-21T23:06:36;13.73;;;13.13;;
22837;SDS011;11585;51.450;-0.240;2023-11-21T23:09:05;14.00;;;13.40;;
22837;SDS011;11585;51.450;-0.240;2023-11-21T23:11:30;14.30;;;13.60;;
22837;SDS011;11585;51.450;-0.240;2023-11-21T23:13:58;13.95;;;13.35;;
22837;SDS011;11585;51.450;-0.240;2023-11-21T23:16:24;14.30;;;13.60;;
22837;SDS011;11585;51.450;-0.240;2023-11-21T23:18:50;13.93;;;13.32;;
22837;SDS011;11585;51.450;-0.240;2023-11-21T23:21:17;14.90;;;14.20;;
22837;SDS011;11585;51.450;-0.240;2023-11-21T23:23:45;14.75;;;14.05;;
22837;SDS011;11585;51.450;-0.240;2023-11-21T23:26:15;14.90;;;14.20;;
22837;SDS011;11585;51.450;-0.240;2023-11-21T23:28:41;15.00;;;14.30;;
22837;SDS011;11585;51.450;-0.240;2023-11-21T23:31:07;14.70;;;14.00;;
22837;SDS011;11585;51.450;-0.240;2023-11-21T23:33:34;15.30;;;14.60;;
22837;SDS011;11585;51.450;-0.240;2023-11-21T23:35:59;14.70;;;14.00;;
22837;SDS011;11585;51.450;-0.240;2023-11-21T23:38:25;14.70;;;14.00;;
22837;SDS011;11585;51.450;-0.240;2023-11-21T23:40:50;14.70;;;14.00;;
22837;SDS011;11585;51.450;-0.240;2023-11-21T23:46:01;14.55;;;13.85;;
22837;SDS011;11585;51.450;-0.240;2023-11-21T23:48:27;15.20;;;14.50;;
22837;SDS011;11585;51.450;-0.240;2023-11-21T23:50:53;14.73;;;14.02;;
22837;SDS011;11585;51.450;-0.240;2023-11-21T23:53:21;15.32;;;14.63;;
22837;SDS011;11585;51.450;-0.240;2023-11-21T23:55:46;14.70;;;14.00;;
22837;SDS011;11585;51.450;-0.240;2023-11-21T23:58:14;14.43;;;13.73;;
